Time;durP1;ratioP1;P1;durP2;ratioP2;P2;SDS_P1;SDS_P2;PMS_P1;PMS_P2;Temp;Humidity;BMP_temperature;BMP_pressure;BME280_temperature;BME280_humidity;BME280_pressure;Samples;Min_cycle;Max_cycle;Signal;HPM_P1;HPM_P2
2022/06/30 00:01:58;;;;;;;20.20;19.00;;;20.10;99.90;;;;;;4991681;28;20455;-78
2022/06/30 00:04:25;;;;;;;20.07;18.77;;;20.00;99.90;;;;;;4991941;28;20801;-79
2022/06/30 00:06:52;;;;;;;20.60;19.20;;;20.00;99.90;;;;;;4992088;28;20459;-80
2022/06/30 00:09:20;;;;;;;20.17;19.00;;;19.90;99.90;;;;;;4991304;28;20965;-79
2022/06/30 00:11:47;;;;;;;20.20;19.10;;;20.00;99.90;;;;;;4991772;28;20517;-79
2022/06/30 00:14:14;;;;;;;20.83;19.47;;;19.90;99.90;;;;;;4991625;28;20470;-79
2022/06/30 00:16:41;;;;;;;21.10;19.70;;;19.90;99.90;;;;;;4991474;28;20473;-79
2022/06/30 00:19:08;;;;;;;23.30;21.77;;;19.90;99.90;;;;;;4991716;28;20451;-79
2022/06/30 00:21:35;;;;;;;20.07;18.87;;;19.80;99.90;;;;;;4991618;28;20474;-79
2022/06/30 00:24:01;;;;;;;20.77;19.47;;;19.80;99.90;;;;;;4991091;28;20454;-78
2022/06/30 00:26:29;;;;;;;22.57;21.00;;;19.80;99.90;;;;;;4991334;28;20458;-79
2022/06/30 00:28:56;;;;;;;21.97;20.77;;;19.80;99.90;;;;;;4991389;28;20465;-79
2022/06/30 00:31:23;;;;;;;23.17;21.77;;;19.70;99.90;;;;;;4991683;28;20466;-79
2022/06/30 00:33:50;;;;;;;23.73;22.03;;;19.70;99.90;;;;;;4991143;28;20483;-79
2022/06/30 00:36:17;;;;;;;22.30;20.90;;;19.70;99.90;;;;;;4991432;28;20547;-80
2022/06/30 00:38:44;;;;;;;22.00;20.70;;;19.80;99.90;;;;;;4991304;28;20450;-79
2022/06/30 00:41:10;;;;;;;23.07;21.27;;;19.70;99.90;;;;;;4991209;28;20509;-78
2022/06/30 00:43:46;;;;;;;21.97;20.53;;;19.60;99.90;;;;;;4991538;28;20458;-79
2022/06/30 00:46:13;;;;;;;21.70;20.33;;;19.60;99.90;;;;;;4991275;28;20865;-79
2022/06/30 00:48:40;;;;;;;21.03;19.80;;;19.60;99.90;;;;;;4991092;28;20865;-77
2022/06/30 03:39:07;;;;;;;29.40;26.80;;;18.10;99.90;;;;;;5852752;23;20528;-79
2022/06/30 03:41:34;;;;;;;30.73;27.87;;;18.20;99.90;;;;;;5008010;28;20493;-80
2022/06/30 03:44:01;;;;;;;28.83;26.63;;;18.30;99.90;;;;;;5010903;28;20459;-77
2022/06/30 03:46:27;;;;;;;29.77;27.47;;;18.40;99.90;;;;;;5010574;28;20458;-78
2022/06/30 03:48:54;;;;;;;27.63;25.87;;;18.40;99.90;;;;;;5010414;28;20458;-69
2022/06/30 03:51:21;;;;;;;26.73;25.00;;;18.50;99.90;;;;;;5010615;28;20504;-68
2022/06/30 03:53:47;;;;;;;26.83;25.13;;;18.50;99.90;;;;;;5010730;28;20515;-68
2022/06/30 03:56:15;;;;;;;27.17;25.47;;;18.60;99.90;;;;;;5010269;28;20454;-68
2022/06/30 03:58:42;;;;;;;28.47;26.47;;;18.60;99.90;;;;;;5010244;28;20500;-68
2022/06/30 04:01:09;;;;;;;27.27;25.57;;;18.60;99.90;;;;;;5010071;28;20536;-69
2022/06/30 04:03:35;;;;;;;25.93;24.00;;;18.60;99.90;;;;;;5010420;28;20449;-68
2022/06/30 04:06:02;;;;;;;25.17;23.37;;;18.60;99.90;;;;;;5010718;28;20516;-72
2022/06/30 04:08:29;;;;;;;25.23;23.63;;;18.60;99.90;;;;;;5010629;28;20512;-70
2022/06/30 04:10:55;;;;;;;25.60;24.00;;;18.50;99.90;;;;;;5010576;28;20504;-71
2022/06/30 04:13:23;;;;;;;26.57;24.87;;;18.50;99.90;;;;;;5010788;28;20446;-70
2022/06/30 04:15:50;;;;;;;27.17;25.37;;;18.50;99.90;;;;;;5011082;28;20481;-71
2022/06/30 04:18:17;;;;;;;28.07;26.03;;;18.50;99.90;;;;;;5010940;28;20460;-71
2022/06/30 04:20:43;;;;;;;28.27;26.27;;;18.50;99.90;;;;;;5010540;28;21077;-68
2022/06/30 04:23:10;;;;;;;28.03;26.20;;;18.50;99.90;;;;;;5010447;28;20940;-67
2022/06/30 04:25:38;;;;;;;28.70;26.70;;;18.60;99.90;;;;;;5010585;28;20453;-67
2022/06/30 04:28:05;;;;;;;26.80;25.10;;;18.90;99.90;;;;;;5010710;28;20461;-69
2022/06/30 04:33:17;;;;;;;26.27;24.60;;;19.70;99.90;;;;;;5010878;28;20432;-69
2022/06/30 04:35:44;;;;;;;26.67;24.67;;;20.00;99.90;;;;;;5010584;28;20484;-68
2022/06/30 04:38:11;;;;;;;23.23;21.27;;;20.30;99.90;;;;;;5006820;28;20480;-70
2022/06/30 04:43:22;;;;;;;24.20;22.40;;;20.80;99.90;;;;;;4990903;28;20422;-70
2022/06/30 04:45:50;;;;;;;25.33;23.33;;;21.00;99.90;;;;;;4990965;28;20867;-70
2022/06/30 04:48:17;;;;;;;24.03;22.53;;;21.10;99.90;;;;;;4990717;28;20956;-70
2022/06/30 04:50:43;;;;;;;23.27;21.87;;;21.20;99.90;;;;;;4990918;28;20455;-71
2022/06/30 04:53:10;;;;;;;23.80;22.40;;;21.30;99.90;;;;;;4991031;28;20502;-69
2022/06/30 04:55:37;;;;;;;22.17;20.90;;;21.30;99.90;;;;;;4990494;28;20455;-72
2022/06/30 04:58:04;;;;;;;22.30;21.20;;;21.30;99.90;;;;;;4990965;28;20824;-72
2022/06/30 05:00:30;;;;;;;22.40;21.17;;;21.50;99.90;;;;;;4983976;28;20490;-73
2022/06/30 05:02:58;;;;;;;22.13;20.93;;;21.60;99.90;;;;;;4971575;28;20462;-72
2022/06/30 05:05:26;;;;;;;21.23;19.90;;;22.00;99.90;;;;;;4977565;28;20494;-73
2022/06/30 05:07:53;;;;;;;22.67;21.07;;;22.30;99.90;;;;;;4975694;28;20582;-72
2022/06/30 05:10:20;;;;;;;23.20;21.53;;;22.40;99.90;;;;;;4971481;28;20479;-73
2022/06/30 05:12:46;;;;;;;21.10;20.00;;;22.30;99.90;;;;;;4971619;28;20515;-72
2022/06/30 05:15:13;;;;;;;20.83;19.50;;;22.40;99.90;;;;;;4971364;28;20451;-72
2022/06/30 05:17:40;;;;;;;21.33;20.00;;;22.50;99.90;;;;;;4971342;28;20455;-72
2022/06/30 05:20:09;;;;;;;22.47;21.00;;;22.80;99.90;;;;;;4971284;28;20451;-71
2022/06/30 05:22:36;;;;;;;22.20;20.80;;;22.80;99.90;;;;;;4971247;28;20881;-72
2022/06/30 05:27:48;;;;;;;21.90;20.50;;;23.00;99.90;;;;;;4971429;28;20482;-73
2022/06/30 05:30:16;;;;;;;22.00;20.53;;;23.30;99.90;;;;;;4971340;28;20456;-72
2022/06/30 05:32:43;;;;;;;21.33;19.60;;;23.70;99.90;;;;;;4971134;28;20538;-71
2022/06/30 05:35:11;;;;;;;20.10;18.90;;;24.00;99.90;;;;;;4971010;28;20470;-71
2022/06/30 05:37:38;;;;;;;19.83;18.43;;;24.10;99.90;;;;;;4971137;28;20846;-71
2022/06/30 05:40:06;;;;;;;19.97;18.47;;;24.10;99.90;;;;;;4970978;28;20487;-72
2022/06/30 05:42:33;;;;;;;19.03;17.70;;;24.20;99.90;;;;;;4971186;28;20491;-71
2022/06/30 05:44:59;;;;;;;18.67;17.67;;;24.30;99.90;;;;;;4971216;28;20463;-71
2022/06/30 05:47:26;;;;;;;18.80;17.50;;;24.40;99.90;;;;;;4971208;28;20464;-71
2022/06/30 05:49:53;;;;;;;19.07;17.90;;;24.70;99.90;;;;;;4973188;28;20456;-72
2022/06/30 05:52:21;;;;;;;17.63;16.70;;;24.90;99.90;;;;;;4974489;28;20471;-72
2022/06/30 05:54:47;;;;;;;17.93;16.87;;;24.80;99.90;;;;;;4974682;28;20456;-70
2022/06/30 05:57:14;;;;;;;18.60;17.70;;;24.80;99.90;;;;;;4974551;28;20452;-71
2022/06/30 05:59:41;;;;;;;18.40;17.33;;;24.80;99.90;;;;;;4974660;28;20455;-71
2022/06/30 06:02:08;;;;;;;17.93;16.83;;;25.40;99.90;;;;;;4974283;28;20500;-72
2022/06/30 06:04:35;;;;;;;19.17;18.00;;;25.90;99.90;;;;;;4974301;28;20511;-73
2022/06/30 06:07:02;;;;;;;17.87;16.97;;;26.00;99.90;;;;;;4984940;28;20532;-71
2022/06/30 06:09:30;;;;;;;18.63;17.50;;;25.70;99.90;;;;;;4974223;28;20540;-72
2022/06/30 06:11:57;;;;;;;19.27;17.63;;;25.70;99.90;;;;;;4974343;28;20444;-72
2022/06/30 06:14:24;;;;;;;18.23;17.30;;;25.60;99.90;;;;;;4974599;28;20451;-71
2022/06/30 06:16:51;;;;;;;18.53;17.37;;;25.60;99.90;;;;;;4974545;28;20502;-70
2022/06/30 06:19:17;;;;;;;17.57;16.67;;;25.60;99.90;;;;;;4973866;28;20518;-70
2022/06/30 06:21:44;;;;;;;17.20;16.20;;;25.70;99.90;;;;;;4971581;28;20491;-71
2022/06/30 06:24:10;;;;;;;17.93;17.03;;;26.00;99.90;;;;;;4972168;28;20459;-71
2022/06/30 06:26:38;;;;;;;18.07;17.07;;;26.20;99.90;;;;;;4973925;28;20455;-70
2022/06/30 06:29:08;;;;;;;18.67;17.50;;;26.40;99.90;;;;;;4974038;28;20514;-70
2022/06/30 06:31:36;;;;;;;17.80;16.87;;;26.40;99.90;;;;;;4974013;28;20455;-71
2022/06/30 06:34:03;;;;;;;20.30;18.70;;;26.50;99.90;;;;;;4973939;28;20456;-70
2022/06/30 06:36:30;;;;;;;19.93;18.50;;;26.60;99.90;;;;;;4974151;28;20448;-72
2022/06/30 06:38:58;;;;;;;18.57;17.47;;;26.80;99.90;;;;;;4973776;28;20471;-70
2022/06/30 06:41:25;;;;;;;19.77;18.47;;;26.90;99.90;;;;;;4973279;28;21096;-70
2022/06/30 06:43:53;;;;;;;20.60;19.37;;;27.10;99.90;;;;;;4973261;28;20463;-70
2022/06/30 06:46:22;;;;;;;19.63;18.33;;;27.30;99.90;;;;;;4973771;28;20459;-71
2022/06/30 06:48:49;;;;;;;18.37;17.37;;;27.40;99.90;;;;;;4973971;28;20546;-71
2022/06/30 06:51:16;;;;;;;17.10;15.97;;;27.60;99.90;;;;;;4973490;28;20630;-71
2022/06/30 06:53:42;;;;;;;17.90;16.87;;;27.80;99.90;;;;;;4973456;28;20525;-71
2022/06/30 06:56:10;;;;;;;17.27;16.27;;;27.80;99.90;;;;;;4973402;28;20848;-70
2022/06/30 06:58:37;;;;;;;18.60;17.60;;;27.80;99.90;;;;;;4973321;28;20495;-70
2022/06/30 07:01:05;;;;;;;18.30;17.03;;;28.00;99.90;;;;;;4973575;28;20860;-71
2022/06/30 07:03:32;;;;;;;17.20;16.07;;;27.70;99.90;;;;;;4973426;28;20479;-71
2022/06/30 07:05:59;;;;;;;17.63;16.73;;;27.90;99.90;;;;;;4972847;28;20880;-71
2022/06/30 07:08:25;;;;;;;20.07;18.87;;;28.30;99.90;;;;;;4983396;28;20864;-71
2022/06/30 07:10:55;;;;;;;17.87;17.03;;;28.30;99.90;;;;;;4973055;28;20799;-71
2022/06/30 07:13:22;;;;;;;17.63;16.63;;;28.40;99.90;;;;;;4973249;28;20460;-71
2022/06/30 07:15:48;;;;;;;18.00;16.90;;;28.60;99.70;;;;;;4973074;28;20456;-71
2022/06/30 07:18:16;;;;;;;18.07;17.13;;;29.00;99.60;;;;;;4973107;28;20456;-71
2022/06/30 07:20:43;;;;;;;18.87;17.50;;;29.50;98.10;;;;;;4973143;28;20452;-71
2022/06/30 07:23:10;;;;;;;17.70;16.57;;;29.70;97.80;;;;;;4973001;28;20484;-72
2022/06/30 07:25:36;;;;;;;19.47;18.03;;;29.50;97.60;;;;;;4973040;28;20451;-70
2022/06/30 07:28:04;;;;;;;20.57;18.77;;;29.20;98.20;;;;;;4972753;28;20452;-70
2022/06/30 07:30:31;;;;;;;17.13;16.23;;;28.90;98.90;;;;;;4972646;28;20455;-71
2022/06/30 07:32:58;;;;;;;17.83;16.83;;;28.80;99.60;;;;;;4972518;28;20463;-71
2022/06/30 07:35:26;;;;;;;17.80;17.00;;;29.10;98.20;;;;;;4972642;28;20447;-70
2022/06/30 07:37:52;;;;;;;18.27;17.17;;;29.80;97.50;;;;;;4972737;28;20456;-70
2022/06/30 07:40:19;;;;;;;18.60;17.50;;;30.60;96.10;;;;;;4972901;28;20483;-71
2022/06/30 07:42:47;;;;;;;17.83;17.03;;;31.00;94.80;;;;;;4972905;28;20488;-71
2022/06/30 07:45:14;;;;;;;19.43;18.50;;;31.40;93.80;;;;;;4972511;28;20460;-70
2022/06/30 07:47:43;;;;;;;19.70;18.50;;;31.60;93.30;;;;;;4972655;28;20953;-70
2022/06/30 07:50:10;;;;;;;20.27;18.90;;;31.60;92.80;;;;;;4987267;28;20463;-72
2022/06/30 07:52:38;;;;;;;20.33;19.00;;;31.70;93.10;;;;;;4991951;28;20458;-69
2022/06/30 07:55:06;;;;;;;20.03;18.73;;;32.10;92.50;;;;;;4991842;28;20455;-71
2022/06/30 07:57:36;;;;;;;19.90;18.77;;;32.20;91.90;;;;;;4991925;28;20447;-70
2022/06/30 08:00:04;;;;;;;19.30;18.23;;;32.80;91.10;;;;;;4991516;28;20538;-71
2022/06/30 08:02:30;;;;;;;19.23;18.20;;;33.10;90.80;;;;;;4990862;28;20491;-72
2022/06/30 08:04:57;;;;;;;20.30;19.20;;;33.70;88.90;;;;;;4990506;28;20454;-72
2022/06/30 08:07:24;;;;;;;22.27;20.47;;;34.50;86.10;;;;;;4989462;28;20516;-72
2022/06/30 08:09:52;;;;;;;18.73;17.83;;;35.20;82.50;;;;;;4991021;28;20447;-71
2022/06/30 08:12:18;;;;;;;20.40;18.97;;;35.40;81.40;;;;;;4991114;28;20506;-74
2022/06/30 08:14:46;;;;;;;20.23;18.83;;;35.40;81.30;;;;;;4989539;28;20450;-72
2022/06/30 08:17:13;;;;;;;20.10;19.00;;;35.80;79.50;;;;;;4991301;28;20953;-72
2022/06/30 08:19:41;;;;;;;20.40;19.30;;;36.10;77.70;;;;;;4991375;28;20454;-72
2022/06/30 08:22:08;;;;;;;19.70;18.80;;;36.00;78.50;;;;;;4991240;28;20529;-72
2022/06/30 08:24:35;;;;;;;20.03;19.00;;;36.90;76.50;;;;;;4991321;28;20454;-72
2022/06/30 08:27:04;;;;;;;20.77;19.33;;;37.30;74.50;;;;;;4991526;28;20486;-73
2022/06/30 08:29:32;;;;;;;20.80;19.80;;;37.40;72.70;;;;;;4991287;28;20454;-72
2022/06/30 08:31:59;;;;;;;21.03;19.60;;;37.90;71.20;;;;;;4991296;28;21000;-72
2022/06/30 08:34:26;;;;;;;20.70;19.60;;;38.30;68.60;;;;;;4991405;28;20462;-71
2022/06/30 08:36:52;;;;;;;19.00;18.10;;;38.20;69.10;;;;;;4991007;28;20462;-71
2022/06/30 08:42:06;;;;;;;20.67;19.50;;;38.10;66.10;;;;;;4991131;28;20575;-70
2022/06/30 08:44:34;;;;;;;21.20;20.00;;;38.60;65.50;;;;;;4991276;28;20450;-72
2022/06/30 08:47:03;;;;;;;20.70;19.70;;;38.40;64.30;;;;;;4990972;28;20455;-72
2022/06/30 08:49:30;;;;;;;19.97;18.97;;;38.20;64.40;;;;;;4991204;28;20454;-72
2022/06/30 08:51:58;;;;;;;20.50;19.60;;;38.50;62.80;;;;;;4990919;28;20451;-72
2022/06/30 08:54:27;;;;;;;21.10;20.10;;;37.40;65.00;;;;;;4990925;28;20509;-72
2022/06/30 08:56:55;;;;;;;19.60;18.50;;;36.60;67.80;;;;;;4991048;28;20447;-72
2022/06/30 08:59:24;;;;;;;19.47;18.50;;;37.20;67.20;;;;;;4990924;28;20517;-72
2022/06/30 09:01:54;;;;;;;20.03;19.03;;;37.40;64.60;;;;;;4990876;28;20569;-73
2022/06/30 09:04:21;;;;;;;20.33;19.33;;;37.90;63.70;;;;;;4991008;28;20505;-73
2022/06/30 09:06:47;;;;;;;18.47;17.57;;;37.50;63.60;;;;;;4990753;28;20451;-72
2022/06/30 09:09:14;;;;;;;19.53;18.60;;;37.50;61.60;;;;;;4990955;28;20501;-72
2022/06/30 09:11:52;;;;;;;19.87;18.83;;;36.80;63.30;;;;;;4990886;28;21080;-71
2022/06/30 09:14:35;;;;;;;20.27;18.73;;;36.30;65.00;;;;;;4990984;28;20828;-72
2022/06/30 09:17:03;;;;;;;19.20;18.10;;;37.10;62.80;;;;;;4990654;28;20450;-71
2022/06/30 09:19:30;;;;;;;20.07;18.97;;;38.10;61.10;;;;;;4990495;28;20462;-71
2022/06/30 09:22:04;;;;;;;18.37;17.53;;;37.20;64.20;;;;;;4990636;28;20486;-72
2022/06/30 09:24:31;;;;;;;18.47;17.67;;;36.00;65.50;;;;;;4992452;28;20508;-72
2022/06/30 09:27:13;;;;;;;19.97;18.97;;;35.60;68.30;;;;;;4994634;28;20493;-71
2022/06/30 09:29:53;;;;;;;18.93;18.13;;;35.80;67.20;;;;;;4994026;28;20573;-70
2022/06/30 09:32:20;;;;;;;18.83;17.93;;;36.10;67.50;;;;;;4995040;28;20450;-71
2022/06/30 09:34:48;;;;;;;19.33;18.30;;;36.80;64.40;;;;;;4994420;28;20867;-73
2022/06/30 09:37:18;;;;;;;19.77;18.97;;;37.20;64.10;;;;;;4994351;28;20455;-70
2022/06/30 09:39:46;;;;;;;20.23;19.27;;;38.50;61.00;;;;;;4993807;28;20569;-71
2022/06/30 09:42:13;;;;;;;19.40;18.50;;;38.90;59.30;;;;;;4993700;28;20482;-71
2022/06/30 09:44:39;;;;;;;18.77;18.00;;;38.30;58.70;;;;;;4993842;28;20969;-71
2022/06/30 09:47:10;;;;;;;19.27;18.13;;;36.50;62.50;;;;;;4993708;28;20471;-72
2022/06/30 09:49:39;;;;;;;17.50;16.90;;;35.50;64.60;;;;;;4993847;28;20948;-72
2022/06/30 09:52:17;;;;;;;18.73;17.83;;;35.60;63.60;;;;;;4991869;28;20812;-71
2022/06/30 09:54:55;;;;;;;17.90;17.03;;;36.00;62.10;;;;;;4993524;28;20537;-72
2022/06/30 09:57:23;;;;;;;20.40;19.57;;;37.10;61.20;;;;;;4993530;28;20497;-70
2022/06/30 09:59:59;;;;;;;19.30;18.50;;;38.20;57.90;;;;;;4994102;28;20525;-71
2022/06/30 10:02:35;;;;;;;19.67;18.87;;;38.80;55.70;;;;;;4993654;28;20521;-71
2022/06/30 10:05:04;;;;;;;20.80;19.83;;;39.20;54.70;;;;;;4993549;28;20486;-73
2022/06/30 10:07:34;;;;;;;19.80;18.77;;;39.10;55.00;;;;;;4993451;28;20454;-73
2022/06/30 10:10:02;;;;;;;17.93;17.23;;;39.50;52.30;;;;;;4993607;28;20466;-72
2022/06/30 10:12:29;;;;;;;19.37;18.57;;;39.30;50.50;;;;;;4993425;28;20944;-72
2022/06/30 10:14:56;;;;;;;17.90;17.17;;;38.80;51.20;;;;;;4993066;28;20458;-71
2022/06/30 10:17:25;;;;;;;19.30;18.40;;;38.20;48.90;;;;;;4993820;28;20462;-71
2022/06/30 10:19:54;;;;;;;18.13;17.37;;;38.10;49.20;;;;;;4993424;28;20941;-71
2022/06/30 10:22:23;;;;;;;18.50;17.40;;;37.70;49.60;;;;;;4993378;28;20493;-71
2022/06/30 10:24:51;;;;;;;17.50;16.80;;;37.90;49.90;;;;;;4993948;28;20450;-72
2022/06/30 10:27:18;;;;;;;17.90;17.20;;;38.20;48.90;;;;;;4993711;28;20454;-72
2022/06/30 10:29:49;;;;;;;18.13;17.33;;;38.90;48.60;;;;;;4993307;28;20450;-71
2022/06/30 10:32:39;;;;;;;18.27;17.17;;;38.90;48.40;;;;;;4993449;28;20961;-73
2022/06/30 10:35:15;;;;;;;19.30;18.40;;;39.30;47.40;;;;;;4979881;28;20467;-72
2022/06/30 10:37:50;;;;;;;17.80;16.93;;;40.20;47.00;;;;;;4993500;28;20545;-72
2022/06/30 10:40:26;;;;;;;19.80;18.90;;;41.40;45.50;;;;;;4993305;28;20488;-71
2022/06/30 10:42:57;;;;;;;18.40;17.70;;;41.60;43.80;;;;;;4993066;28;20915;-71
2022/06/30 10:45:53;;;;;;;18.80;18.10;;;40.30;44.30;;;;;;4993214;28;20446;-71
2022/06/30 10:48:20;;;;;;;17.60;16.90;;;39.30;45.10;;;;;;4993286;28;20447;-72
2022/06/30 10:50:49;;;;;;;18.20;17.40;;;38.70;46.30;;;;;;4993566;28;20465;-72
2022/06/30 10:53:17;;;;;;;17.67;16.97;;;37.80;46.80;;;;;;4993270;28;20457;-73
2022/06/30 10:55:46;;;;;;;19.90;18.60;;;37.70;47.00;;;;;;4993056;28;20945;-71
2022/06/30 10:58:13;;;;;;;19.00;18.03;;;38.20;46.90;;;;;;4993145;28;20482;-72
2022/06/30 11:00:58;;;;;;;18.30;17.50;;;38.60;46.70;;;;;;4993170;28;20451;-71
2022/06/30 11:03:59;;;;;;;18.93;17.97;;;39.70;45.90;;;;;;4992866;28;20486;-72
2022/06/30 11:07:08;;;;;;;18.40;17.70;;;40.10;45.60;;;;;;4982450;28;20473;-73
2022/06/30 11:10:16;;;;;;;19.10;18.10;;;40.10;45.10;;;;;;4983002;28;20534;-71
2022/06/30 11:12:57;;;;;;;19.53;18.37;;;41.00;43.90;;;;;;4981492;28;20443;-72
2022/06/30 11:15:52;;;;;;;18.43;17.60;;;39.30;43.70;;;;;;4981951;28;20538;-72
2022/06/30 11:18:19;;;;;;;18.10;17.20;;;37.20;46.90;;;;;;4983276;28;20447;-73
2022/06/30 11:20:46;;;;;;;17.33;16.63;;;37.60;46.70;;;;;;4981808;28;20894;-72
2022/06/30 11:23:13;;;;;;;18.10;17.40;;;37.20;47.60;;;;;;4980872;28;20544;-71
2022/06/30 11:28:29;;;;;;;17.87;16.97;;;38.80;44.40;;;;;;4981891;28;20439;-71
2022/06/30 11:30:56;;;;;;;19.33;18.20;;;39.30;45.50;;;;;;4980460;28;20450;-71
2022/06/30 11:33:23;;;;;;;18.30;17.60;;;39.80;44.20;;;;;;4982204;28;20521;-71
2022/06/30 11:36:10;;;;;;;18.97;18.10;;;40.30;43.00;;;;;;4982014;28;20440;-71
2022/06/30 11:38:37;;;;;;;18.23;17.30;;;39.00;44.60;;;;;;4979744;28;20460;-71
2022/06/30 11:43:53;;;;;;;18.87;17.97;;;40.10;43.50;;;;;;4973154;28;21055;-71
2022/06/30 11:46:20;;;;;;;18.87;18.10;;;40.80;42.30;;;;;;4972711;28;20447;-72
2022/06/30 11:48:47;;;;;;;20.00;18.97;;;41.20;41.50;;;;;;4973179;28;20534;-72
2022/06/30 11:51:14;;;;;;;18.80;18.03;;;42.10;40.90;;;;;;4972869;28;20541;-71
2022/06/30 11:53:42;;;;;;;19.17;18.13;;;40.50;42.40;;;;;;4973021;28;20731;-71
2022/06/30 11:56:11;;;;;;;19.53;18.73;;;39.10;44.80;;;;;;4973236;28;20455;-71
2022/06/30 11:58:38;;;;;;;18.50;17.70;;;38.40;45.80;;;;;;4972905;28;20527;-71
2022/06/30 12:01:17;;;;;;;18.43;17.60;;;38.40;45.60;;;;;;4972841;28;20550;-72
2022/06/30 12:03:47;;;;;;;19.03;18.23;;;38.60;44.60;;;;;;4972486;28;20892;-71
2022/06/30 12:06:17;;;;;;;18.00;17.30;;;38.00;45.30;;;;;;4971030;28;20459;-71
2022/06/30 12:08:49;;;;;;;18.53;17.70;;;37.30;46.10;;;;;;4972647;28;20460;-71
2022/06/30 12:11:17;;;;;;;18.97;18.17;;;37.80;46.40;;;;;;4970921;28;20945;-71
2022/06/30 12:13:44;;;;;;;18.30;17.50;;;38.00;46.80;;;;;;4979649;28;20813;-71
2022/06/30 12:16:11;;;;;;;18.17;17.37;;;37.00;47.90;;;;;;4981830;28;20443;-71
2022/06/30 12:18:41;;;;;;;17.83;16.83;;;37.20;48.60;;;;;;4974725;28;20455;-71
2022/06/30 12:21:08;;;;;;;17.90;17.20;;;37.60;47.20;;;;;;4972751;28;20444;-72
2022/06/30 12:23:37;;;;;;;17.17;16.37;;;37.70;47.30;;;;;;4979918;28;20484;-71
2022/06/30 12:26:05;;;;;;;18.20;17.30;;;38.10;46.80;;;;;;4981034;28;20454;-71
2022/06/30 12:28:45;;;;;;;18.10;17.30;;;38.50;46.00;;;;;;4982267;28;20457;-72
2022/06/30 12:31:22;;;;;;;18.17;17.37;;;39.60;44.60;;;;;;4982240;28;20867;-71
2022/06/30 12:33:48;;;;;;;18.27;17.17;;;40.50;43.70;;;;;;4981809;28;20475;-71
2022/06/30 12:36:15;;;;;;;18.07;17.07;;;37.90;44.10;;;;;;4979970;28;20817;-71
2022/06/30 12:38:42;;;;;;;18.33;17.63;;;36.30;47.10;;;;;;4981140;28;20558;-71
2022/06/30 12:41:09;;;;;;;18.40;17.60;;;37.60;46.90;;;;;;4981339;28;20479;-71
2022/06/30 12:43:45;;;;;;;18.00;16.93;;;37.10;45.00;;;;;;4981873;28;21076;-71
2022/06/30 12:46:12;;;;;;;18.73;17.83;;;36.30;46.30;;;;;;4981877;28;20941;-71
2022/06/30 12:48:44;;;;;;;18.00;17.00;;;35.60;47.30;;;;;;4979873;28;20448;-71
2022/06/30 12:51:13;;;;;;;18.33;17.33;;;35.00;49.20;;;;;;4979967;28;21022;-71
2022/06/30 12:53:40;;;;;;;17.33;16.60;;;35.90;49.70;;;;;;4980217;28;20436;-71
2022/06/30 12:56:11;;;;;;;16.73;16.03;;;37.00;48.30;;;;;;4978025;28;20823;-71
2022/06/30 12:58:52;;;;;;;18.47;17.70;;;37.40;45.10;;;;;;4974439;28;20514;-71
2022/06/30 13:01:20;;;;;;;18.27;17.37;;;37.80;45.50;;;;;;4976624;28;20482;-71
2022/06/30 13:03:49;;;;;;;17.43;16.60;;;37.30;45.80;;;;;;4975947;28;20519;-71
2022/06/30 13:06:16;;;;;;;17.70;16.90;;;37.00;44.90;;;;;;4976159;28;20534;-71
2022/06/30 13:08:46;;;;;;;18.37;17.57;;;37.30;46.10;;;;;;4976050;28;20537;-71
2022/06/30 13:11:15;;;;;;;16.33;15.63;;;37.40;45.60;;;;;;4975942;28;20522;-72
2022/06/30 13:13:43;;;;;;;16.40;15.67;;;38.30;45.30;;;;;;4975898;28;20494;-71
2022/06/30 13:16:12;;;;;;;18.50;17.80;;;39.10;44.00;;;;;;4975919;28;20542;-71
2022/06/30 13:18:39;;;;;;;18.57;17.57;;;39.70;42.70;;;;;;4976025;28;20455;-71
2022/06/30 13:21:06;;;;;;;17.80;17.00;;;39.90;42.80;;;;;;4976003;28;20451;-71
2022/06/30 13:23:32;;;;;;;18.10;17.40;;;40.50;42.10;;;;;;4976126;28;20518;-71
2022/06/30 13:25:59;;;;;;;18.23;17.53;;;40.50;42.00;;;;;;4975665;28;20514;-71
2022/06/30 13:28:26;;;;;;;18.80;18.00;;;40.40;41.60;;;;;;4975862;28;20502;-71
2022/06/30 13:30:52;;;;;;;16.80;16.10;;;40.50;42.50;;;;;;4975707;28;20540;-71
2022/06/30 13:33:20;;;;;;;18.10;17.40;;;40.20;43.20;;;;;;4975830;28;20440;-72
2022/06/30 13:35:47;;;;;;;19.23;17.93;;;40.30;42.70;;;;;;4975428;28;20448;-72
2022/06/30 13:38:14;;;;;;;19.00;18.20;;;40.20;41.70;;;;;;4975749;28;20475;-72
2022/06/30 13:40:41;;;;;;;20.23;19.33;;;40.60;42.30;;;;;;4975353;28;20490;-71
2022/06/30 13:43:08;;;;;;;18.70;17.90;;;40.00;42.60;;;;;;4973453;28;20559;-71
2022/06/30 13:45:34;;;;;;;18.40;17.67;;;40.00;43.10;;;;;;4974971;28;20462;-71
2022/06/30 13:48:01;;;;;;;18.47;17.57;;;39.50;43.80;;;;;;4975213;28;20510;-71
2022/06/30 13:50:29;;;;;;;18.07;17.20;;;38.50;44.40;;;;;;4975047;28;20873;-71
2022/06/30 13:52:56;;;;;;;17.17;16.30;;;37.50;45.80;;;;;;4973120;28;20455;-71
2022/06/30 13:55:22;;;;;;;17.03;16.20;;;37.00;46.20;;;;;;4974615;28;20451;-71
2022/06/30 13:57:49;;;;;;;17.73;17.00;;;36.30;47.10;;;;;;4975244;28;20447;-71
2022/06/30 14:00:17;;;;;;;16.87;15.93;;;35.80;48.80;;;;;;4975120;28;20459;-71
2022/06/30 14:02:43;;;;;;;18.03;17.23;;;35.90;48.90;;;;;;4974498;28;20489;-72
2022/06/30 14:05:10;;;;;;;18.07;17.17;;;35.90;49.20;;;;;;4974666;28;20483;-72
2022/06/30 14:07:38;;;;;;;18.20;17.13;;;36.10;50.00;;;;;;4974557;28;20506;-72
2022/06/30 14:10:06;;;;;;;17.40;16.60;;;37.00;48.60;;;;;;4974031;28;20447;-72
2022/06/30 14:12:33;;;;;;;17.33;16.53;;;37.20;47.60;;;;;;4974750;28;20451;-72
2022/06/30 14:15:00;;;;;;;16.57;15.73;;;36.50;48.50;;;;;;4974628;28;20448;-72
2022/06/30 14:17:27;;;;;;;17.03;16.30;;;35.80;48.60;;;;;;4974237;28;20716;-70
2022/06/30 14:19:53;;;;;;;16.87;16.17;;;35.50;49.20;;;;;;4974417;28;20542;-73
2022/06/30 14:22:20;;;;;;;17.70;17.00;;;35.40;50.30;;;;;;4974442;28;20954;-72
2022/06/30 14:24:48;;;;;;;16.90;16.20;;;34.90;51.20;;;;;;4974470;28;20522;-71
2022/06/30 14:27:15;;;;;;;17.20;16.50;;;34.50;52.40;;;;;;4974513;28;20458;-71
2022/06/30 14:29:42;;;;;;;17.57;16.67;;;34.00;53.70;;;;;;4974247;28;20460;-71
2022/06/30 14:32:09;;;;;;;14.53;13.77;;;33.90;54.20;;;;;;4974229;28;20459;-71
2022/06/30 14:34:37;;;;;;;18.00;17.20;;;33.80;54.40;;;;;;4974262;28;21016;-72
2022/06/30 14:37:04;;;;;;;17.20;16.40;;;33.50;54.00;;;;;;4974244;28;20565;-71
2022/06/30 14:39:31;;;;;;;17.13;16.43;;;33.30;54.50;;;;;;4974138;28;20483;-72
2022/06/30 14:44:43;;;;;;;17.73;16.77;;;33.20;55.30;;;;;;4973913;28;20482;-72
2022/06/30 14:47:10;;;;;;;17.07;16.30;;;32.90;56.30;;;;;;4973923;28;20458;-71
2022/06/30 14:49:37;;;;;;;17.50;16.40;;;32.60;57.30;;;;;;4973943;28;21014;-71
2022/06/30 14:52:04;;;;;;;16.30;15.47;;;32.40;58.00;;;;;;4974086;28;20467;-71
2022/06/30 14:54:30;;;;;;;17.70;16.60;;;32.20;57.60;;;;;;4973627;28;20891;-71
2022/06/30 14:56:58;;;;;;;17.30;16.43;;;31.90;59.00;;;;;;4973799;28;20506;-71
2022/06/30 14:59:25;;;;;;;16.73;15.73;;;31.70;61.40;;;;;;4973580;28;20502;-71
2022/06/30 15:01:52;;;;;;;16.33;15.43;;;31.30;62.20;;;;;;4973856;28;20456;-71
2022/06/30 15:04:19;;;;;;;15.93;15.13;;;31.20;61.50;;;;;;4973765;28;20613;-71
2022/06/30 15:06:45;;;;;;;15.50;14.90;;;31.10;63.70;;;;;;4973372;28;20455;-71
2022/06/30 15:09:12;;;;;;;16.30;15.60;;;31.00;64.60;;;;;;4973418;28;20463;-71
2022/06/30 15:11:39;;;;;;;17.30;16.30;;;30.90;67.30;;;;;;4973898;28;20659;-71
2022/06/30 15:14:06;;;;;;;16.57;15.67;;;30.60;68.20;;;;;;4973220;28;20477;-71
2022/06/30 15:16:33;;;;;;;16.73;15.90;;;30.40;68.70;;;;;;4973654;28;20452;-71
2022/06/30 15:19:00;;;;;;;17.60;16.80;;;30.30;71.40;;;;;;4973324;28;20478;-72
2022/06/30 15:24:12;;;;;;;15.73;15.03;;;30.10;73.00;;;;;;4973059;28;20478;-72
2022/06/30 15:26:40;;;;;;;17.03;16.23;;;30.00;74.80;;;;;;4973358;28;20698;-71
2022/06/30 15:29:09;;;;;;;15.90;15.10;;;30.00;75.00;;;;;;4973383;28;20456;-71
2022/06/30 15:31:37;;;;;;;16.90;15.90;;;30.00;74.10;;;;;;4973214;28;20448;-71
2022/06/30 15:34:05;;;;;;;18.00;16.83;;;30.00;75.70;;;;;;4973091;28;20929;-71
2022/06/30 15:36:32;;;;;;;22.80;21.50;;;29.80;79.80;;;;;;4972906;28;20455;-72
2022/06/30 15:39:00;;;;;;;24.00;22.70;;;29.40;90.20;;;;;;4973116;28;20699;-70
2022/06/30 15:41:28;;;;;;;23.37;21.90;;;28.70;96.10;;;;;;4972816;28;20919;-70
2022/06/30 15:43:59;;;;;;;23.77;22.57;;;28.00;99.80;;;;;;4972868;28;20514;-70
2022/06/30 15:46:28;;;;;;;23.83;22.53;;;27.20;99.90;;;;;;4972879;28;21045;-69